createdAt,value
2018-12-30T00:01:44.877Z,3.70
2018-12-30T00:04:13.220Z,3.70
2018-12-30T00:06:42.068Z,2.62
2018-12-30T00:09:10.872Z,3.45
2018-12-30T00:11:39.579Z,3.30
2018-12-30T00:14:07.954Z,3.27
2018-12-30T00:16:36.321Z,4.62
2018-12-30T00:19:04.750Z,3.42
2018-12-30T00:21:33.248Z,3.67
2018-12-30T00:24:01.642Z,4.15
2018-12-30T00:26:29.906Z,2.83
2018-12-30T00:28:58.513Z,4.40
2018-12-30T00:31:26.868Z,3.25
2018-12-30T00:33:55.192Z,3.45
2018-12-30T00:36:23.457Z,3.20
2018-12-30T00:38:51.758Z,3.62
2018-12-30T00:41:20.135Z,3.10
2018-12-30T00:43:48.688Z,2.80
2018-12-30T00:46:17.038Z,2.50
2018-12-30T00:48:45.341Z,2.87
2018-12-30T00:51:17.207Z,3.17
2018-12-30T00:53:43.625Z,2.85
2018-12-30T00:56:12.188Z,3.25
2018-12-30T00:58:40.599Z,2.30
2018-12-30T01:01:08.945Z,2.67
2018-12-30T01:03:37.379Z,2.62
2018-12-30T01:06:06.010Z,1.67
2018-12-30T01:08:34.298Z,1.85
2018-12-30T01:11:02.919Z,2.67
2018-12-30T01:13:31.219Z,1.80
2018-12-30T01:15:59.530Z,2.58
2018-12-30T01:18:27.921Z,2.05
2018-12-30T01:20:56.655Z,2.67
2018-12-30T01:23:24.916Z,2.02
2018-12-30T01:25:56.515Z,2.20
2018-12-30T01:28:24.808Z,3.00
2018-12-30T01:30:53.041Z,3.12
2018-12-30T01:33:21.360Z,2.75
2018-12-30T01:35:49.735Z,3.47
2018-12-30T01:38:17.983Z,2.90
2018-12-30T01:40:46.275Z,2.27
2018-12-30T01:43:14.517Z,3.25
2018-12-30T01:45:42.745Z,2.47
2018-12-30T01:48:11.011Z,2.47
2018-12-30T01:50:39.229Z,2.62
2018-12-30T01:53:07.845Z,2.17
2018-12-30T01:55:36.163Z,2.83
2018-12-30T01:58:04.408Z,2.58
2018-12-30T02:00:32.637Z,2.40
2018-12-30T02:03:00.977Z,2.05
2018-12-30T02:05:29.314Z,2.27
2018-12-30T02:07:57.549Z,2.55
2018-12-30T02:10:25.780Z,1.80
2018-12-30T02:12:54.054Z,1.92
2018-12-30T02:15:22.281Z,2.25
2018-12-30T02:17:50.564Z,2.55
2018-12-30T02:20:18.957Z,2.35
2018-12-30T02:22:47.214Z,2.65
2018-12-30T02:25:15.437Z,2.12
2018-12-30T02:27:43.723Z,1.82
2018-12-30T02:30:12.036Z,2.00
2018-12-30T02:32:40.626Z,2.40
2018-12-30T02:35:08.926Z,2.80
2018-12-30T02:37:37.177Z,1.85
2018-12-30T02:40:05.469Z,2.20
2018-12-30T02:42:33.749Z,2.22
2018-12-30T02:45:02.273Z,1.92
2018-12-30T02:47:30.575Z,2.12
2018-12-30T02:49:58.819Z,2.62
2018-12-30T02:52:27.037Z,2.58
2018-12-30T02:54:55.290Z,2.77
2018-12-30T02:57:23.585Z,2.12
2018-12-30T02:59:51.826Z,3.27
2018-12-30T03:02:20.055Z,2.75
2018-12-30T03:04:48.297Z,2.45
2018-12-30T03:07:16.530Z,3.08
2018-12-30T03:09:44.777Z,3.25
2018-12-30T03:12:13.010Z,2.58
2018-12-30T03:14:41.343Z,2.47
2018-12-30T03:17:09.594Z,2.50
2018-12-30T03:19:37.855Z,2.40
2018-12-30T03:22:06.073Z,2.30
2018-12-30T03:24:34.321Z,2.45
2018-12-30T03:27:02.548Z,3.17
2018-12-30T03:29:30.827Z,3.02
2018-12-30T03:31:59.091Z,2.15
2018-12-30T03:34:27.325Z,2.00
2018-12-30T03:36:55.604Z,2.12
2018-12-30T03:39:23.911Z,2.05
2018-12-30T03:41:52.146Z,2.05
2018-12-30T03:44:20.426Z,2.10
2018-12-30T03:46:48.698Z,1.75
2018-12-30T03:49:16.930Z,2.60
2018-12-30T03:51:45.157Z,2.37
2018-12-30T03:54:13.396Z,1.47
2018-12-30T03:56:41.622Z,2.27
2018-12-30T03:59:09.861Z,1.70
2018-12-30T04:01:38.116Z,2.72
2018-12-30T04:04:06.350Z,2.67
2018-12-30T04:06:34.602Z,2.80
2018-12-30T04:09:04.498Z,2.52
2018-12-30T04:11:32.800Z,2.15
2018-12-30T04:14:01.003Z,3.10
2018-12-30T04:16:29.249Z,2.45
2018-12-30T04:18:57.482Z,3.17
2018-12-30T04:21:25.745Z,2.27
2018-12-30T04:23:54.047Z,2.37
2018-12-30T04:26:22.307Z,2.70
2018-12-30T04:28:50.581Z,2.47
2018-12-30T04:31:18.826Z,3.27
2018-12-30T04:33:47.070Z,2.27
2018-12-30T04:36:15.319Z,2.70
2018-12-30T04:38:43.574Z,2.70
2018-12-30T04:41:11.870Z,2.98
2018-12-30T04:43:40.110Z,2.47
2018-12-30T04:46:08.355Z,3.40
2018-12-30T04:48:36.595Z,2.85
2018-12-30T04:51:04.857Z,1.85
2018-12-30T04:53:33.086Z,2.58
2018-12-30T04:56:01.351Z,2.37
2018-12-30T04:58:29.608Z,3.30
2018-12-30T05:00:57.846Z,2.55
2018-12-30T05:03:26.101Z,2.33
2018-12-30T05:05:54.458Z,2.77
2018-12-30T05:08:22.745Z,3.05
2018-12-30T05:10:50.984Z,2.67
2018-12-30T05:13:19.224Z,2.72
2018-12-30T05:15:47.474Z,2.27
2018-12-30T05:18:15.714Z,2.50
2018-12-30T05:20:43.945Z,2.80
2018-12-30T05:23:12.202Z,3.47
2018-12-30T05:25:40.430Z,2.72
2018-12-30T05:28:08.706Z,1.50
2018-12-30T05:30:36.933Z,2.22
2018-12-30T05:33:05.192Z,2.42
2018-12-30T05:35:33.465Z,2.45
2018-12-30T05:38:01.697Z,2.47
2018-12-30T05:40:29.926Z,2.83
2018-12-30T05:42:58.192Z,3.60
2018-12-30T05:45:26.399Z,2.95
2018-12-30T05:47:54.667Z,2.60
2018-12-30T05:50:22.902Z,2.42
2018-12-30T05:52:51.226Z,2.30
2018-12-30T05:55:19.467Z,2.12
2018-12-30T05:57:47.761Z,2.65
2018-12-30T06:00:16.005Z,2.47
2018-12-30T06:02:44.258Z,1.75
2018-12-30T06:05:12.524Z,2.42
2018-12-30T06:07:40.788Z,2.60
2018-12-30T06:10:09.038Z,3.05
2018-12-30T06:12:37.261Z,2.45
2018-12-30T06:15:06.581Z,2.70
2018-12-30T06:17:34.816Z,2.65
2018-12-30T06:20:03.234Z,3.05
2018-12-30T06:22:31.458Z,2.70
2018-12-30T06:24:59.744Z,3.05
2018-12-30T06:27:27.998Z,2.85
2018-12-30T06:29:56.285Z,2.77
2018-12-30T06:32:24.526Z,3.10
2018-12-30T06:34:52.774Z,2.58
2018-12-30T06:37:21.077Z,1.90
2018-12-30T06:39:49.340Z,2.70
2018-12-30T06:42:17.588Z,2.77
2018-12-30T06:44:45.831Z,1.95
2018-12-30T06:47:14.130Z,3.05
2018-12-30T06:49:42.377Z,2.85
2018-12-30T06:52:10.610Z,2.60
2018-12-30T06:54:38.841Z,2.77
2018-12-30T06:57:07.073Z,2.47
2018-12-30T06:59:35.349Z,2.50
2018-12-30T07:02:03.570Z,2.10
2018-12-30T07:04:31.824Z,2.77
2018-12-30T07:07:00.082Z,1.87
2018-12-30T07:09:28.315Z,2.47
2018-12-30T07:11:56.591Z,2.80
2018-12-30T07:14:24.815Z,3.30
2018-12-30T07:16:53.067Z,3.55
2018-12-30T07:19:21.343Z,3.13
2018-12-30T07:21:49.602Z,3.17
2018-12-30T07:24:17.909Z,2.42
2018-12-30T07:26:46.152Z,2.20
2018-12-30T07:29:14.386Z,3.20
2018-12-30T07:31:42.649Z,2.05
2018-12-30T07:34:10.886Z,2.70
2018-12-30T07:36:39.225Z,2.80
2018-12-30T07:39:07.615Z,2.77
2018-12-30T07:41:35.849Z,2.90
2018-12-30T07:44:04.085Z,3.20
2018-12-30T07:46:32.354Z,3.10
2018-12-30T07:49:00.634Z,3.47
2018-12-30T07:51:28.976Z,3.70
2018-12-30T07:53:57.207Z,2.93
2018-12-30T07:56:25.536Z,3.17
2018-12-30T07:58:53.786Z,3.17
2018-12-30T08:01:22.016Z,3.08
2018-12-30T08:03:53.698Z,3.00
2018-12-30T08:06:21.989Z,3.40
2018-12-30T08:08:50.315Z,3.27
2018-12-30T08:11:18.544Z,3.05
2018-12-30T08:13:46.803Z,3.25
2018-12-30T08:16:15.033Z,3.20
2018-12-30T08:18:43.291Z,2.87
2018-12-30T08:21:11.512Z,2.75
2018-12-30T08:23:39.773Z,3.27
2018-12-30T08:26:08.009Z,3.45
2018-12-30T08:28:36.262Z,3.30
2018-12-30T08:31:04.488Z,3.25
2018-12-30T08:33:32.729Z,3.10
2018-12-30T08:36:01.018Z,3.00
2018-12-30T08:38:29.276Z,4.37
2018-12-30T08:40:57.519Z,2.90
2018-12-30T08:43:25.770Z,3.35
2018-12-30T08:45:54.168Z,3.22
2018-12-30T08:48:22.497Z,3.00
2018-12-30T08:50:50.745Z,2.90
2018-12-30T08:53:18.998Z,3.05
2018-12-30T08:55:47.285Z,2.77
2018-12-30T08:58:15.639Z,2.77
2018-12-30T09:00:43.963Z,2.77
2018-12-30T09:03:12.221Z,2.47
2018-12-30T09:05:40.467Z,3.30
2018-12-30T09:08:08.872Z,2.85
2018-12-30T09:10:37.278Z,2.73
2018-12-30T09:13:05.544Z,2.35
2018-12-30T09:15:33.790Z,2.37
2018-12-30T09:18:03.930Z,4.22
2018-12-30T09:20:32.418Z,2.70
2018-12-30T09:23:00.668Z,2.67
2018-12-30T09:25:29.485Z,2.15
2018-12-30T09:27:57.761Z,2.87
2018-12-30T09:30:26.030Z,2.87
2018-12-30T09:32:54.611Z,2.22
2018-12-30T09:35:22.869Z,2.50
2018-12-30T09:37:51.161Z,2.65
2018-12-30T09:40:19.451Z,2.70
2018-12-30T09:42:47.711Z,3.30
2018-12-30T09:45:16.077Z,2.10
2018-12-30T09:47:44.385Z,1.92
2018-12-30T09:50:12.648Z,2.30
2018-12-30T09:52:40.872Z,2.45
2018-12-30T09:55:09.217Z,2.87
2018-12-30T09:57:37.510Z,2.40
2018-12-30T10:00:08.136Z,2.37
2018-12-30T10:02:36.377Z,2.02
2018-12-30T10:05:05.221Z,2.40
2018-12-30T10:07:33.533Z,2.70
2018-12-30T10:10:01.829Z,2.72
2018-12-30T10:12:30.207Z,2.37
2018-12-30T10:14:58.430Z,2.67
2018-12-30T10:17:26.701Z,2.10
2018-12-30T10:19:55.352Z,2.20
2018-12-30T10:22:23.725Z,2.10
2018-12-30T10:24:52.036Z,2.63
2018-12-30T10:27:20.395Z,1.92
2018-12-30T10:29:48.639Z,1.65
2018-12-30T10:32:19.864Z,2.37
2018-12-30T10:34:48.254Z,2.25
2018-12-30T10:37:16.555Z,2.42
2018-12-30T10:39:44.773Z,2.07
2018-12-30T10:42:13.026Z,2.30
2018-12-30T10:44:41.313Z,1.92
2018-12-30T10:47:09.553Z,2.63
2018-12-30T10:49:37.825Z,2.58
2018-12-30T10:52:06.050Z,2.17
2018-12-30T10:54:34.359Z,2.95
2018-12-30T10:57:02.840Z,3.55
2018-12-30T10:59:31.335Z,2.67
2018-12-30T11:01:59.663Z,2.45
2018-12-30T11:04:27.949Z,2.67
2018-12-30T11:06:56.172Z,2.20
2018-12-30T11:09:24.446Z,1.67
2018-12-30T11:11:52.737Z,2.02
2018-12-30T11:14:21.026Z,3.08
2018-12-30T11:16:49.274Z,2.22
2018-12-30T11:19:17.766Z,1.75
2018-12-30T11:21:46.116Z,2.27
2018-12-30T11:24:14.516Z,3.25
2018-12-30T11:26:42.744Z,2.45
2018-12-30T11:29:10.997Z,2.22
2018-12-30T11:31:39.593Z,2.30
2018-12-30T11:34:08.213Z,2.02
2018-12-30T11:36:36.505Z,1.90
2018-12-30T11:39:05.993Z,2.15
2018-12-30T11:41:34.219Z,2.00
2018-12-30T11:44:02.783Z,3.77
2018-12-30T11:46:31.061Z,2.35
2018-12-30T11:48:59.293Z,2.58
2018-12-30T11:51:27.689Z,2.27
2018-12-30T11:53:55.904Z,2.33
2018-12-30T11:56:24.224Z,2.40
2018-12-30T11:58:52.458Z,2.00
2018-12-30T12:01:20.825Z,2.60
2018-12-30T12:03:49.167Z,2.30
2018-12-30T12:06:17.475Z,1.90
2018-12-30T12:08:46.024Z,2.80
2018-12-30T12:11:14.415Z,2.00
2018-12-30T12:13:42.780Z,2.33
2018-12-30T12:16:11.058Z,2.92
2018-12-30T12:18:39.458Z,3.08
2018-12-30T12:21:07.815Z,2.85
2018-12-30T12:23:36.118Z,2.80
2018-12-30T12:26:04.366Z,2.30
2018-12-30T12:28:32.597Z,1.92
2018-12-30T12:31:01.126Z,2.62
2018-12-30T12:33:29.399Z,2.80
2018-12-30T12:35:57.798Z,2.58
2018-12-30T12:38:26.101Z,2.92
2018-12-30T12:40:55.984Z,2.45
2018-12-30T12:43:24.553Z,1.87
2018-12-30T12:45:52.997Z,1.82
2018-12-30T12:48:21.514Z,2.10
2018-12-30T12:50:51.454Z,2.08
2018-12-30T12:53:19.853Z,3.25
2018-12-30T12:55:48.202Z,2.95
2018-12-30T12:58:16.593Z,2.77
2018-12-30T13:00:44.826Z,2.67
2018-12-30T13:03:13.085Z,2.40
2018-12-30T13:05:41.422Z,2.50
2018-12-30T13:08:09.736Z,2.15
2018-12-30T13:10:38.001Z,2.47
2018-12-30T13:13:06.222Z,2.15
2018-12-30T13:15:36.226Z,2.62
2018-12-30T13:18:04.465Z,2.72
2018-12-30T13:20:32.690Z,2.05
2018-12-30T13:23:00.929Z,1.92
2018-12-30T13:25:29.191Z,2.58
2018-12-30T13:27:57.432Z,2.45
2018-12-30T13:30:25.741Z,2.47
2018-12-30T13:32:54.008Z,2.92
2018-12-30T13:35:22.893Z,2.47
2018-12-30T13:37:51.177Z,2.47
2018-12-30T13:40:20.327Z,3.17
2018-12-30T13:42:50.787Z,2.00
2018-12-30T13:45:18.712Z,3.10
2018-12-30T13:47:46.940Z,2.47
2018-12-30T13:50:15.192Z,1.90
2018-12-30T13:52:43.419Z,2.58
2018-12-30T13:55:11.677Z,2.92
2018-12-30T13:57:39.940Z,2.52
2018-12-30T14:00:09.430Z,2.15
2018-12-30T14:02:37.666Z,2.45
2018-12-30T14:05:06.380Z,2.30
2018-12-30T14:07:34.683Z,2.37
2018-12-30T14:10:02.923Z,1.52
2018-12-30T14:12:31.981Z,2.58
2018-12-30T14:15:00.275Z,2.00
2018-12-30T14:17:28.553Z,2.60
2018-12-30T14:19:56.809Z,2.60
2018-12-30T14:22:25.029Z,3.27
2018-12-30T14:24:55.397Z,2.50
2018-12-30T14:27:23.246Z,2.30
2018-12-30T14:29:51.464Z,3.30
2018-12-30T14:32:19.693Z,2.17
2018-12-30T14:34:47.953Z,2.08
2018-12-30T14:37:16.221Z,2.20
2018-12-30T14:39:44.526Z,2.22
2018-12-30T14:42:13.003Z,2.50
2018-12-30T14:44:41.309Z,2.77
2018-12-30T14:47:10.031Z,2.60
2018-12-30T14:49:38.283Z,2.42
2018-12-30T14:52:06.541Z,2.20
2018-12-30T14:54:34.786Z,2.72
2018-12-30T14:57:05.035Z,2.50
2018-12-30T14:59:34.519Z,1.87
2018-12-30T15:02:02.770Z,2.17
2018-12-30T15:04:31.005Z,2.02
2018-12-30T15:06:59.248Z,2.20
2018-12-30T15:09:35.349Z,2.37
2018-12-30T15:11:57.551Z,2.50
2018-12-30T15:14:25.765Z,1.85
2018-12-30T15:16:54.010Z,2.20
2018-12-30T15:19:22.444Z,2.47
2018-12-30T15:21:50.812Z,2.47
2018-12-30T15:24:19.206Z,2.00
2018-12-30T15:26:47.457Z,2.85
2018-12-30T15:29:15.685Z,2.58
2018-12-30T15:31:43.929Z,3.35
2018-12-30T15:34:12.149Z,3.52
2018-12-30T15:36:40.385Z,2.80
2018-12-30T15:39:08.610Z,2.98
2018-12-30T15:41:36.961Z,2.90
2018-12-30T15:44:05.206Z,3.15
2018-12-30T15:46:33.436Z,3.40
2018-12-30T15:49:01.677Z,3.98
2018-12-30T15:51:30.011Z,3.17
2018-12-30T15:53:58.249Z,2.95
2018-12-30T15:56:26.507Z,3.00
2018-12-30T15:58:54.738Z,3.72
2018-12-30T16:01:22.962Z,3.22
2018-12-30T16:03:51.221Z,3.17
2018-12-30T16:06:21.897Z,3.85
2018-12-30T16:08:50.146Z,3.22
2018-12-30T16:11:18.365Z,3.12
2018-12-30T16:13:46.697Z,3.15
2018-12-30T16:16:15.038Z,3.62
2018-12-30T16:18:43.326Z,3.90
2018-12-30T16:21:11.602Z,3.22
2018-12-30T16:23:39.852Z,3.52
2018-12-30T16:26:08.076Z,3.02
2018-12-30T16:28:36.394Z,4.42
2018-12-30T16:31:04.698Z,4.12
2018-12-30T16:33:33.061Z,4.30
2018-12-30T16:36:01.325Z,4.72
2018-12-30T16:38:29.589Z,4.58
2018-12-30T16:40:57.835Z,5.50
2018-12-30T16:43:26.077Z,5.28
2018-12-30T16:45:54.302Z,6.58
2018-12-30T16:48:22.574Z,6.97
2018-12-30T16:50:50.927Z,6.25
2018-12-30T16:53:19.159Z,6.87
2018-12-30T16:55:47.469Z,6.83
2018-12-30T16:58:15.709Z,7.47
2018-12-30T17:00:43.953Z,7.75
2018-12-30T17:03:12.177Z,7.33
2018-12-30T17:05:40.425Z,6.30
2018-12-30T17:08:08.730Z,7.42
2018-12-30T17:10:36.978Z,8.45
2018-12-30T17:13:05.231Z,7.65
2018-12-30T17:15:33.511Z,8.78
2018-12-30T17:18:01.747Z,8.93
2018-12-30T17:20:30.076Z,10.08
2018-12-30T17:22:58.341Z,11.05
2018-12-30T17:25:26.589Z,10.05
2018-12-30T17:27:54.809Z,10.85
2018-12-30T17:30:23.062Z,7.40
2018-12-30T17:32:51.339Z,10.75
2018-12-30T17:35:19.596Z,10.38
2018-12-30T17:37:47.808Z,11.55
2018-12-30T17:40:16.314Z,12.40
2018-12-30T17:42:44.558Z,12.55
2018-12-30T17:45:12.816Z,10.88
2018-12-30T17:47:41.069Z,14.07
2018-12-30T17:50:09.365Z,14.38
2018-12-30T17:52:37.632Z,14.47
2018-12-30T17:55:05.933Z,15.18
2018-12-30T17:57:34.212Z,16.00
2018-12-30T18:00:02.896Z,15.38
2018-12-30T18:02:31.153Z,15.28
2018-12-30T18:04:59.377Z,16.20
2018-12-30T18:07:27.621Z,13.25
2018-12-30T18:09:56.402Z,16.95
2018-12-30T18:12:24.713Z,16.63
2018-12-30T18:14:52.958Z,18.20
2018-12-30T18:17:21.219Z,17.05
2018-12-30T18:19:49.465Z,17.27
2018-12-30T18:22:17.794Z,16.73
2018-12-30T18:24:46.044Z,18.48
2018-12-30T18:27:14.293Z,17.62
2018-12-30T18:29:42.537Z,18.45
2018-12-30T18:32:10.785Z,18.37
2018-12-30T18:34:39.035Z,18.17
2018-12-30T18:37:07.256Z,19.80
2018-12-30T18:39:35.515Z,19.77
2018-12-30T18:42:03.741Z,18.37
2018-12-30T18:44:32.009Z,18.12
2018-12-30T18:47:00.296Z,16.55
2018-12-30T18:49:28.516Z,19.35
2018-12-30T18:51:56.759Z,18.05
2018-12-30T18:54:25.247Z,20.92
2018-12-30T18:56:53.669Z,20.37
2018-12-30T18:59:21.918Z,20.10
2018-12-30T19:01:50.194Z,19.92
2018-12-30T19:04:18.497Z,21.93
2018-12-30T19:06:46.755Z,19.60
2018-12-30T19:09:15.010Z,20.33
2018-12-30T19:11:43.234Z,18.80
2018-12-30T19:14:11.507Z,19.35
2018-12-30T19:16:40.205Z,18.35
2018-12-30T19:19:12.404Z,18.45
2018-12-30T19:21:40.689Z,19.92
2018-12-30T19:24:08.981Z,21.00
2018-12-30T19:26:37.213Z,21.02
2018-12-30T19:29:05.506Z,20.37
2018-12-30T19:31:33.734Z,20.90
2018-12-30T19:34:01.976Z,21.57
2018-12-30T19:36:30.310Z,22.65
2018-12-30T19:38:58.557Z,20.48
2018-12-30T19:41:26.852Z,19.57
2018-12-30T19:43:55.119Z,20.30
2018-12-30T19:46:23.363Z,22.32
2018-12-30T19:48:51.791Z,21.33
2018-12-30T19:51:20.095Z,21.85
2018-12-30T19:53:49.963Z,21.05
2018-12-30T19:56:21.874Z,22.85
2018-12-30T19:58:48.167Z,20.20
2018-12-30T20:01:16.420Z,21.93
2018-12-30T20:03:44.640Z,22.45
2018-12-30T20:06:12.885Z,21.55
2018-12-30T20:08:41.236Z,21.83
2018-12-30T20:11:09.671Z,19.90
2018-12-30T20:13:37.897Z,22.75
2018-12-30T20:16:06.201Z,22.30
2018-12-30T20:18:34.546Z,23.65
2018-12-30T20:21:02.789Z,20.62
2018-12-30T20:23:31.053Z,24.37
2018-12-30T20:25:59.331Z,22.93
2018-12-30T20:28:27.777Z,23.27
2018-12-30T20:30:56.019Z,23.02
2018-12-30T20:33:24.253Z,22.10
2018-12-30T20:35:52.719Z,25.67
2018-12-30T20:38:21.016Z,23.12
2018-12-30T20:40:49.964Z,22.48
2018-12-30T20:43:18.286Z,25.15
2018-12-30T20:45:46.577Z,22.77
2018-12-30T20:48:15.337Z,24.00
2018-12-30T20:50:44.053Z,25.57
2018-12-30T20:53:12.422Z,23.73
2018-12-30T20:55:41.090Z,23.60
2018-12-30T20:58:09.482Z,24.63
2018-12-30T21:00:38.262Z,25.50
2018-12-30T21:03:06.544Z,22.15
2018-12-30T21:05:35.286Z,24.32
2018-12-30T21:08:04.026Z,23.95
2018-12-30T21:10:33.888Z,23.02
2018-12-30T21:13:02.262Z,25.35
2018-12-30T21:15:30.570Z,22.20
2018-12-30T21:17:58.817Z,24.65
2018-12-30T21:20:27.736Z,24.60
2018-12-30T21:22:56.085Z,23.50
2018-12-30T21:25:24.368Z,21.27
2018-12-30T21:27:52.884Z,24.23
2018-12-30T21:30:21.203Z,19.05
2018-12-30T21:32:49.540Z,22.25
2018-12-30T21:35:18.394Z,24.12
2018-12-30T21:37:46.666Z,20.90
2018-12-30T21:40:15.020Z,20.23
2018-12-30T21:42:43.888Z,21.75
2018-12-30T21:45:12.586Z,23.92
2018-12-30T21:47:40.951Z,22.00
2018-12-30T21:50:10.999Z,21.45
2018-12-30T21:52:39.407Z,18.60
2018-12-30T21:55:08.239Z,22.93
2018-12-30T21:57:36.507Z,22.35
2018-12-30T22:00:07.530Z,20.80
2018-12-30T22:02:35.844Z,19.17
2018-12-30T22:05:05.083Z,22.45
2018-12-30T22:07:33.471Z,22.75
2018-12-30T22:10:03.334Z,20.85
2018-12-30T22:12:31.877Z,21.73
2018-12-30T22:15:03.272Z,19.17
2018-12-30T22:17:31.898Z,19.50
2018-12-30T22:20:00.324Z,19.82
2018-12-30T22:22:28.790Z,18.45
2018-12-30T22:24:57.541Z,16.95
2018-12-30T22:27:26.051Z,16.90
2018-12-30T22:29:54.500Z,19.32
2018-12-30T22:32:22.828Z,16.20
2018-12-30T22:34:51.054Z,16.73
2018-12-30T22:37:19.297Z,17.15
2018-12-30T22:39:57.197Z,17.25
2018-12-30T22:42:32.768Z,19.25
2018-12-30T22:44:56.891Z,17.60
2018-12-30T22:47:25.618Z,18.55
2018-12-30T22:49:54.574Z,16.00
2018-12-30T22:52:25.692Z,18.15
2018-12-30T22:54:56.123Z,16.97
2018-12-30T22:57:25.894Z,18.05
2018-12-30T22:59:54.636Z,15.53
2018-12-30T23:02:25.969Z,16.37
2018-12-30T23:04:54.202Z,16.25
2018-12-30T23:07:22.513Z,14.25
2018-12-30T23:09:50.736Z,14.95
2018-12-30T23:12:18.991Z,15.03
2018-12-30T23:14:47.210Z,16.50
2018-12-30T23:17:15.458Z,12.30
2018-12-30T23:19:43.788Z,10.70
2018-12-30T23:22:12.161Z,14.85
2018-12-30T23:24:40.456Z,14.25
2018-12-30T23:27:08.703Z,11.78
2018-12-30T23:29:36.945Z,15.23
2018-12-30T23:32:05.402Z,15.08
2018-12-30T23:34:34.353Z,13.00
2018-12-30T23:37:02.616Z,13.35
2018-12-30T23:39:30.857Z,11.45
2018-12-30T23:41:59.073Z,14.93
2018-12-30T23:44:27.317Z,13.45
2018-12-30T23:46:55.544Z,12.23
2018-12-30T23:49:23.781Z,12.47
2018-12-30T23:51:52.014Z,14.55
2018-12-30T23:54:20.274Z,13.85
2018-12-30T23:56:48.498Z,13.13
2018-12-30T23:59:16.868Z,12.65
